createdAt,value
2018-04-15T00:00:08.109Z,14.8
2018-04-15T00:00:58.744Z,14.8
2018-04-15T00:01:48.806Z,14.8
2018-04-15T00:02:38.577Z,14.8
2018-04-15T00:03:28.921Z,14.7
2018-04-15T00:04:19.000Z,14.7
2018-04-15T00:05:09.072Z,14.7
2018-04-15T00:05:58.540Z,14.6
2018-04-15T00:06:49.167Z,14.6
2018-04-15T00:07:38.967Z,14.6
2018-04-15T00:08:29.313Z,14.6
2018-04-15T00:09:19.096Z,14.6
2018-04-15T00:10:09.438Z,14.6
2018-04-15T00:10:59.489Z,14.5
2018-04-15T00:11:49.574Z,14.5
2018-04-15T00:12:39.613Z,14.5
2018-04-15T00:13:29.703Z,14.5
2018-04-15T00:14:19.214Z,14.4
2018-04-15T00:15:09.818Z,14.4
2018-04-15T00:15:59.871Z,14.4
2018-04-15T00:16:49.935Z,14.4
2018-04-15T00:17:39.999Z,14.4
2018-04-15T00:18:30.064Z,14.4
2018-04-15T00:19:19.570Z,14.3
2018-04-15T00:20:10.190Z,14.3
2018-04-15T00:20:59.717Z,14.3
2018-04-15T00:21:49.777Z,14.3
2018-04-15T00:22:40.125Z,14.2
2018-04-15T00:23:30.480Z,14.2
2018-04-15T00:24:20.248Z,14.2
2018-04-15T00:25:10.296Z,14.2
2018-04-15T00:26:00.089Z,14.2
2018-04-15T00:26:50.423Z,14.1
2018-04-15T00:27:40.993Z,14.1
2018-04-15T00:28:30.844Z,14.1
2018-04-15T00:29:20.913Z,14.1
2018-04-15T00:30:10.954Z,14.1
2018-04-15T00:31:01.011Z,14
2018-04-15T00:31:50.810Z,14
2018-04-15T00:32:40.585Z,13.9
2018-04-15T00:33:30.928Z,13.9
2018-04-15T00:34:21.302Z,13.9
2018-04-15T00:35:11.338Z,13.9
2018-04-15T00:36:01.437Z,13.8
2018-04-15T00:36:50.905Z,13.8
2018-04-15T00:37:41.252Z,13.8
2018-04-15T00:38:31.316Z,13.8
2018-04-15T00:39:21.657Z,13.8
2018-04-15T00:40:11.743Z,13.8
2018-04-15T00:41:01.506Z,13.8
2018-04-15T00:41:51.872Z,13.7
2018-04-15T00:42:41.930Z,13.7
2018-04-15T00:43:32.003Z,13.6
2018-04-15T00:44:21.763Z,13.6
2018-04-15T00:45:12.092Z,13.6
2018-04-15T00:46:01.892Z,13.6
2018-04-15T00:46:52.223Z,13.6
2018-04-15T00:47:42.288Z,13.5
2018-04-15T00:48:32.366Z,13.6
2018-04-15T00:49:22.428Z,13.5
2018-04-15T00:50:12.218Z,13.4
2018-04-15T00:51:02.559Z,13.4
2018-04-15T00:51:52.343Z,13.4
2018-04-15T00:52:42.400Z,13.4
2018-04-15T00:53:32.736Z,13.3
2018-04-15T00:54:22.810Z,13.3
2018-04-15T00:55:12.316Z,13.3
2018-04-15T00:56:02.686Z,13.3
2018-04-15T00:56:53.007Z,13.3
2018-04-15T00:57:42.776Z,13.2
2018-04-15T00:58:33.135Z,13.2
2018-04-15T00:59:22.646Z,13.2
2018-04-15T01:00:13.253Z,13.1
2018-04-15T01:01:03.058Z,13.1
2018-04-15T01:01:53.086Z,13.1
2018-04-15T01:02:43.463Z,13.1
2018-04-15T01:03:33.239Z,13.1
2018-04-15T01:04:23.588Z,13.1
2018-04-15T01:05:13.642Z,13
2018-04-15T01:06:03.713Z,13
2018-04-15T01:06:53.765Z,13
2018-04-15T01:07:43.554Z,12.9
2018-04-15T01:08:33.912Z,12.9
2018-04-15T01:09:23.963Z,12.9
2018-04-15T01:10:14.021Z,12.9
2018-04-15T01:11:04.091Z,12.9
2018-04-15T01:11:54.138Z,12.9
2018-04-15T01:12:44.207Z,12.8
2018-04-15T01:13:34.319Z,12.8
2018-04-15T01:14:23.788Z,12.8
2018-04-15T01:15:14.164Z,12.8
2018-04-15T01:16:04.199Z,12.8
2018-04-15T01:16:54.272Z,12.8
2018-04-15T01:17:44.579Z,12.8
2018-04-15T01:18:34.658Z,12.7
2018-04-15T01:19:24.455Z,12.7
2018-04-15T01:20:14.519Z,12.6
2018-04-15T01:21:04.625Z,12.6
2018-04-15T01:21:54.906Z,12.6
2018-04-15T01:22:44.426Z,12.6
2018-04-15T01:23:35.072Z,12.6
2018-04-15T01:24:25.120Z,12.5
2018-04-15T01:25:15.225Z,12.5
2018-04-15T01:26:05.260Z,12.5
2018-04-15T01:26:55.317Z,12.5
2018-04-15T01:27:45.357Z,12.4
2018-04-15T01:28:35.419Z,12.4
2018-04-15T01:29:25.474Z,12.4
2018-04-15T01:30:15.305Z,12.4
2018-04-15T01:31:05.621Z,12.4
2018-04-15T01:31:55.669Z,12.4
2018-04-15T01:32:45.770Z,12.3
2018-04-15T01:33:35.860Z,12.3
2018-04-15T01:34:25.309Z,12.3
2018-04-15T01:35:15.657Z,12.3
2018-04-15T01:36:06.085Z,12.3
2018-04-15T01:36:56.092Z,12.3
2018-04-15T01:37:46.143Z,12.2
2018-04-15T01:38:35.905Z,12.2
2018-04-15T01:39:25.989Z,12.2
2018-04-15T01:40:16.307Z,12.1
2018-04-15T01:41:06.379Z,12.1
2018-04-15T01:41:55.890Z,12.1
2018-04-15T01:42:46.234Z,12.1
2018-04-15T01:43:36.286Z,12
2018-04-15T01:44:26.411Z,12
2018-04-15T01:45:16.422Z,12
2018-04-15T01:46:06.769Z,11.9
2018-04-15T01:46:56.283Z,11.9
2018-04-15T01:47:46.618Z,11.9
2018-04-15T01:48:36.678Z,11.9
2018-04-15T01:49:27.023Z,11.9
2018-04-15T01:50:16.811Z,11.8
2018-04-15T01:51:06.612Z,11.8
2018-04-15T01:51:56.925Z,11.8
2018-04-15T01:52:47.281Z,11.8
2018-04-15T01:53:36.877Z,11.7
2018-04-15T01:54:27.132Z,11.7
2018-04-15T01:55:17.481Z,11.7
2018-04-15T01:56:07.258Z,11.7
2018-04-15T01:56:57.623Z,11.6
2018-04-15T01:57:47.667Z,11.6
2018-04-15T01:58:37.150Z,11.6
2018-04-15T01:59:27.782Z,11.6
2018-04-15T02:00:17.862Z,11.6
2018-04-15T02:01:07.633Z,11.6
2018-04-15T02:01:57.974Z,11.5
2018-04-15T02:02:48.043Z,11.5
2018-04-15T02:03:37.825Z,11.5
2018-04-15T02:04:28.162Z,11.5
2018-04-15T02:05:18.207Z,11.4
2018-04-15T02:06:08.285Z,11.4
2018-04-15T02:06:58.086Z,11.4
2018-04-15T02:07:48.432Z,11.4
2018-04-15T02:08:38.489Z,11.4
2018-04-15T02:09:28.271Z,11.4
2018-04-15T02:10:18.602Z,11.4
2018-04-15T02:11:08.678Z,11.3
2018-04-15T02:11:58.459Z,11.3
2018-04-15T02:12:48.535Z,11.3
2018-04-15T02:13:38.887Z,11.3
2018-04-15T02:14:28.675Z,11.3
2018-04-15T02:15:18.745Z,11.2
2018-04-15T02:16:09.050Z,11.2
2018-04-15T02:16:59.127Z,11.2
2018-04-15T02:17:48.919Z,11.1
2018-04-15T02:18:38.966Z,11.1
2018-04-15T02:19:28.750Z,11.1
2018-04-15T02:20:19.120Z,11.1
2018-04-15T02:21:09.168Z,11.1
2018-04-15T02:21:59.227Z,11.1
2018-04-15T02:22:49.563Z,11.1
2018-04-15T02:23:39.627Z,11.1
2018-04-15T02:24:29.419Z,11.1
2018-04-15T02:25:19.481Z,11
2018-04-15T02:26:09.815Z,11
2018-04-15T02:26:59.881Z,11
2018-04-15T02:27:49.943Z,10.9
2018-04-15T02:28:40.002Z,10.9
2018-04-15T02:29:30.061Z,10.9
2018-04-15T02:30:19.860Z,10.9
2018-04-15T02:31:09.934Z,10.9
2018-04-15T02:32:00.012Z,10.9
2018-04-15T02:32:50.331Z,10.9
2018-04-15T02:33:40.136Z,10.9
2018-04-15T02:34:30.459Z,10.8
2018-04-15T02:35:20.525Z,10.8
2018-04-15T02:36:10.336Z,10.8
2018-04-15T02:37:00.391Z,10.8
2018-04-15T02:37:50.729Z,10.8
2018-04-15T02:38:40.799Z,10.8
2018-04-15T02:39:30.284Z,10.8
2018-04-15T02:40:20.932Z,10.8
2018-04-15T02:41:10.695Z,10.7
2018-04-15T02:42:00.748Z,10.7
2018-04-15T02:42:50.833Z,10.7
2018-04-15T02:43:40.878Z,10.6
2018-04-15T02:44:30.956Z,10.6
2018-04-15T02:45:21.311Z,10.6
2018-04-15T02:46:11.078Z,10.6
2018-04-15T02:47:01.161Z,10.6
2018-04-15T02:47:51.516Z,10.6
2018-04-15T02:48:41.551Z,10.5
2018-04-15T02:49:31.051Z,10.5
2018-04-15T02:50:21.676Z,10.5
2018-04-15T02:51:11.741Z,10.5
2018-04-15T02:52:01.805Z,10.4
2018-04-15T02:52:51.869Z,10.4
2018-04-15T02:53:41.095Z,10.4
2018-04-15T02:54:31.996Z,10.4
2018-04-15T02:55:22.064Z,10.4
2018-04-15T02:56:12.119Z,10.4
2018-04-15T02:57:02.184Z,10.4
2018-04-15T02:57:51.673Z,10.3
2018-04-15T02:58:42.316Z,10.3
2018-04-15T02:59:32.083Z,10.3
2018-04-15T03:00:22.451Z,10.3
2018-04-15T03:01:12.518Z,10.3
2018-04-15T03:02:02.296Z,10.3
2018-04-15T03:02:52.670Z,10.3
2018-04-15T03:03:42.682Z,10.2
2018-04-15T03:04:31.918Z,10.2
2018-04-15T03:05:22.841Z,10.2
2018-04-15T03:06:12.900Z,10.2
2018-04-15T03:07:02.668Z,10.1
2018-04-15T03:07:53.002Z,10.1
2018-04-15T03:08:43.083Z,10.1
2018-04-15T03:09:33.129Z,10.1
2018-04-15T03:10:23.201Z,10.1
2018-04-15T03:11:13.285Z,10.1
2018-04-15T03:12:02.814Z,10.1
2018-04-15T03:12:53.381Z,10.1
2018-04-15T03:13:43.209Z,10
2018-04-15T03:14:33.247Z,10
2018-04-15T03:15:23.568Z,10
2018-04-15T03:16:13.366Z,10
2018-04-15T03:17:03.703Z,9.9
2018-04-15T03:17:53.496Z,9.9
2018-04-15T03:18:43.589Z,9.9
2018-04-15T03:19:33.709Z,9.9
2018-04-15T03:20:23.950Z,9.9
2018-04-15T03:21:14.034Z,9.9
2018-04-15T03:22:04.109Z,9.9
2018-04-15T03:22:54.150Z,9.9
2018-04-15T03:23:44.225Z,9.8
2018-04-15T03:24:34.272Z,9.8
2018-04-15T03:25:24.483Z,9.8
2018-04-15T03:26:14.148Z,9.8
2018-04-15T03:27:04.203Z,9.8
2018-04-15T03:27:54.536Z,9.8
2018-04-15T03:28:44.646Z,9.8
2018-04-15T03:29:34.670Z,9.8
2018-04-15T03:30:24.813Z,9.8
2018-04-15T03:31:14.788Z,9.8
2018-04-15T03:32:04.881Z,9.8
2018-04-15T03:32:54.644Z,9.7
2018-04-15T03:33:44.997Z,9.7
2018-04-15T03:34:35.033Z,9.7
2018-04-15T03:35:24.829Z,9.7
2018-04-15T03:36:15.173Z,9.6
2018-04-15T03:37:05.237Z,9.6
2018-04-15T03:37:54.740Z,9.6
2018-04-15T03:38:45.352Z,9.6
2018-04-15T03:39:35.435Z,9.6
2018-04-15T03:40:25.492Z,9.6
2018-04-15T03:41:15.005Z,9.6
2018-04-15T03:42:05.609Z,9.6
2018-04-15T03:42:55.687Z,9.6
2018-04-15T03:43:45.769Z,9.6
2018-04-15T03:44:35.802Z,9.6
2018-04-15T03:45:25.326Z,9.6
2018-04-15T03:47:05.998Z,9.6
2018-04-15T03:47:56.062Z,9.5
2018-04-15T03:48:45.571Z,9.5
2018-04-15T03:49:36.178Z,9.5
2018-04-15T03:50:26.243Z,9.5
2018-04-15T03:51:16.039Z,9.5
2018-04-15T03:52:06.107Z,9.5
2018-04-15T03:52:56.443Z,9.5
2018-04-15T03:53:46.501Z,9.5
2018-04-15T03:54:36.569Z,9.5
2018-04-15T03:55:26.092Z,9.5
2018-04-15T03:56:16.411Z,9.4
2018-04-15T03:57:06.751Z,9.4
2018-04-15T03:57:56.559Z,9.4
2018-04-15T03:58:46.894Z,9.4
2018-04-15T03:59:36.676Z,9.4
2018-04-15T04:00:27.031Z,9.4
2018-04-15T04:01:17.089Z,9.4
2018-04-15T04:02:06.946Z,9.4
2018-04-15T04:02:56.936Z,9.4
2018-04-15T04:03:47.001Z,9.4
2018-04-15T04:04:37.050Z,9.4
2018-04-15T04:05:27.394Z,9.4
2018-04-15T04:06:17.448Z,9.5
2018-04-15T04:07:07.251Z,9.4
2018-04-15T04:07:57.620Z,9.4
2018-04-15T04:08:47.645Z,9.5
2018-04-15T04:09:37.723Z,9.4
2018-04-15T04:10:27.793Z,9.5
2018-04-15T04:11:17.839Z,9.5
2018-04-15T04:12:07.896Z,9.5
2018-04-15T04:12:57.683Z,9.5
2018-04-15T04:13:48.028Z,9.5
2018-04-15T04:14:37.535Z,9.6
2018-04-15T04:15:27.870Z,9.6
2018-04-15T04:16:17.945Z,9.6
2018-04-15T04:17:08.288Z,9.6
2018-04-15T04:17:58.353Z,9.6
2018-04-15T04:18:48.117Z,9.7
2018-04-15T04:19:38.488Z,9.7
2018-04-15T04:20:28.799Z,9.7
2018-04-15T04:21:18.611Z,9.7
2018-04-15T04:22:08.658Z,9.8
2018-04-15T04:22:58.747Z,9.8
2018-04-15T04:23:48.777Z,9.8
2018-04-15T04:24:38.856Z,9.8
2018-04-15T04:25:28.918Z,9.9
2018-04-15T04:26:18.989Z,9.9
2018-04-15T04:27:08.486Z,9.9
2018-04-15T04:27:58.832Z,9.9
2018-04-15T04:28:48.341Z,10
2018-04-15T04:29:39.244Z,10
2018-04-15T04:30:29.318Z,10.1
2018-04-15T04:31:19.389Z,10.1
2018-04-15T04:32:09.167Z,10.1
2018-04-15T04:32:59.234Z,10.1
2018-04-15T04:33:49.552Z,10.2
2018-04-15T04:34:39.080Z,10.3
2018-04-15T04:35:29.703Z,10.3
2018-04-15T04:36:19.466Z,10.3
2018-04-15T04:37:09.550Z,10.4
2018-04-15T04:37:59.609Z,10.4
2018-04-15T04:38:49.656Z,10.5
2018-04-15T04:39:39.929Z,10.6
2018-04-15T04:40:29.791Z,10.7
2018-04-15T04:41:19.859Z,10.8
2018-04-15T04:42:09.638Z,10.9
2018-04-15T04:43:00.271Z,11
2018-04-15T04:43:50.321Z,11.1
2018-04-15T04:44:40.117Z,11.3
2018-04-15T04:45:30.160Z,11.4
2018-04-15T04:46:20.535Z,11.6
2018-04-15T04:47:10.588Z,11.8
2018-04-15T04:48:00.641Z,11.9
2018-04-15T04:48:50.719Z,12.2
2018-04-15T04:49:40.818Z,12.4
2018-04-15T04:50:30.826Z,12.6
2018-04-15T04:51:20.900Z,12.8
2018-04-15T04:52:10.966Z,13.1
2018-04-15T04:53:00.763Z,13.3
2018-04-15T04:53:50.546Z,13.6
2018-04-15T04:54:40.878Z,13.8
2018-04-15T04:55:31.224Z,14.1
2018-04-15T04:56:21.268Z,14.3
2018-04-15T04:57:11.335Z,14.6
2018-04-15T04:58:01.393Z,14.8
2018-04-15T04:58:51.482Z,15
2018-04-15T04:59:41.254Z,15.2
2018-04-15T05:00:31.033Z,15.4
2018-04-15T05:01:21.678Z,15.6
2018-04-15T05:02:11.719Z,15.8
2018-04-15T05:03:01.507Z,16
2018-04-15T05:03:51.864Z,16.2
2018-04-15T05:04:41.652Z,16.4
2018-04-15T05:05:31.980Z,16.6
2018-04-15T05:06:22.047Z,16.8
2018-04-15T05:07:12.102Z,16.9
2018-04-15T05:08:01.915Z,17.1
2018-04-15T05:08:51.680Z,17.3
2018-04-15T05:09:42.022Z,17.4
2018-04-15T05:10:32.386Z,17.6
2018-04-15T05:11:21.748Z,17.8
2018-04-15T05:12:12.287Z,17.9
2018-04-15T05:13:02.582Z,18.1
2018-04-15T05:13:52.615Z,18.3
2018-04-15T05:14:42.392Z,18.6
2018-04-15T05:16:22.795Z,18.9
2018-04-15T05:17:13.158Z,19.1
2018-04-15T05:18:02.954Z,19.4
2018-04-15T05:18:52.734Z,19.6
2018-04-15T05:19:42.278Z,19.8
2018-04-15T05:20:32.842Z,20.1
2018-04-15T05:21:23.179Z,20.3
2018-04-15T05:22:12.717Z,20.6
2018-04-15T05:23:41.528Z,21.1
2018-04-15T05:24:31.866Z,21.3
2018-04-15T05:25:21.947Z,21.6
2018-04-15T05:26:11.226Z,21.8
2018-04-15T05:27:02.060Z,22.1
2018-04-15T05:27:51.846Z,22.3
2018-04-15T05:28:42.185Z,22.6
2018-04-15T05:29:32.274Z,22.8
2018-04-15T05:30:22.311Z,23.1
2018-04-15T05:31:12.421Z,23.3
2018-04-15T05:32:02.465Z,23.5
2018-04-15T05:32:52.509Z,23.8
2018-04-15T05:33:42.569Z,24
2018-04-15T05:34:32.078Z,24.2
2018-04-15T05:35:22.694Z,24.5
2018-04-15T05:36:12.753Z,24.7
2018-04-15T05:37:02.829Z,24.9
2018-04-15T05:37:52.883Z,25.1
2018-04-15T05:38:42.397Z,25.3
2018-04-15T05:39:32.744Z,25.5
2018-04-15T05:40:23.059Z,25.6
2018-04-15T05:41:13.122Z,25.9
2018-04-15T05:42:03.203Z,26.1
2018-04-15T05:42:53.276Z,26.3
2018-04-15T05:43:43.326Z,26.5
2018-04-15T05:44:33.116Z,26.7
2018-04-15T05:45:23.478Z,26.9
2018-04-15T05:46:13.042Z,27.2
2018-04-15T05:47:03.588Z,27.4
2018-04-15T05:47:53.367Z,27.5
2018-04-15T05:48:43.425Z,27.7
2018-04-15T05:49:33.789Z,27.9
2018-04-15T05:50:23.564Z,28.1
2018-04-15T05:51:13.325Z,28.4
2018-04-15T05:52:03.707Z,28.6
2018-04-15T05:52:53.739Z,28.9
2018-04-15T05:53:44.087Z,29.1
2018-04-15T05:54:33.852Z,29.4
2018-04-15T05:55:23.943Z,29.5
2018-04-15T05:56:13.805Z,29.7
2018-04-15T05:57:04.066Z,29.9
2018-04-15T05:57:54.427Z,30.1
2018-04-15T05:58:44.492Z,30.2
2018-04-15T05:59:34.436Z,30.4
2018-04-15T06:00:24.578Z,30.6
2018-04-15T06:01:14.412Z,30.7
2018-04-15T06:02:04.446Z,30.8
2018-04-15T06:02:54.512Z,31
2018-04-15T06:03:44.842Z,31.2
2018-04-15T06:04:34.909Z,31.4
2018-04-15T06:05:24.989Z,31.6
2018-04-15T06:06:14.759Z,31.8
2018-04-15T06:07:04.831Z,32.1
2018-04-15T06:07:55.156Z,32.4
2018-04-15T06:08:45.214Z,32.7
2018-04-15T06:09:35.286Z,33
2018-04-15T06:10:25.353Z,33.3
2018-04-15T06:11:15.437Z,33.6
2018-04-15T06:12:05.201Z,34
2018-04-15T06:12:55.541Z,34.3
2018-04-15T06:13:45.633Z,34.8
2018-04-15T06:14:35.412Z,35.1
2018-04-15T06:15:25.724Z,35.6
2018-04-15T06:16:15.805Z,36.1
2018-04-15T06:17:05.864Z,36.4
2018-04-15T06:17:55.642Z,36.8
2018-04-15T06:18:46.007Z,37.1
2018-04-15T06:19:35.764Z,37.4
2018-04-15T06:20:26.128Z,37.6
2018-04-15T06:21:16.173Z,37.9
2018-04-15T06:22:06.250Z,38
2018-04-15T06:22:56.298Z,38.2
2018-04-15T06:23:46.358Z,38.3
2018-04-15T06:24:36.401Z,38.5
2018-04-15T06:25:26.516Z,38.6
2018-04-15T06:26:16.295Z,38.7
2018-04-15T06:27:06.613Z,38.8
2018-04-15T06:27:56.677Z,38.8
2018-04-15T06:28:46.501Z,38.8
2018-04-15T06:29:36.520Z,38.9
2018-04-15T06:30:26.370Z,38.9
2018-04-15T06:31:16.971Z,39
2018-04-15T06:32:07.000Z,39.1
2018-04-15T06:32:57.063Z,39.3
2018-04-15T06:33:46.862Z,39.4
2018-04-15T06:34:37.209Z,39.6
2018-04-15T06:35:26.977Z,39.8
2018-04-15T06:36:17.337Z,39.9
2018-04-15T06:37:07.105Z,40
2018-04-15T06:37:57.172Z,40.1
2018-04-15T06:38:47.238Z,40.2
2018-04-15T06:39:37.286Z,40.3
2018-04-15T06:40:27.654Z,40.3
2018-04-15T06:41:17.432Z,40.4
2018-04-15T06:42:07.501Z,40.4
2018-04-15T06:42:57.556Z,40.5
2018-04-15T06:43:47.329Z,40.7
2018-04-15T06:44:37.941Z,40.8
2018-04-15T06:45:27.731Z,41
2018-04-15T06:46:17.803Z,41.2
2018-04-15T06:47:08.151Z,41.4
2018-04-15T06:47:58.208Z,41.7
2018-04-15T06:48:47.693Z,42
2018-04-15T06:49:38.340Z,42.1
2018-04-15T06:50:28.404Z,42.1
2018-04-15T06:51:18.451Z,42.3
2018-04-15T06:52:08.237Z,42.4
2018-04-15T06:52:58.296Z,42.8
2018-04-15T06:53:48.632Z,43.3
2018-04-15T06:54:38.435Z,43.8
2018-04-15T06:55:28.489Z,44.4
2018-04-15T06:56:18.884Z,45
2018-04-15T06:57:08.920Z,45.6
2018-04-15T06:57:58.958Z,46.3
2018-04-15T06:58:48.737Z,46.9
2018-04-15T06:59:38.822Z,47.5
2018-04-15T07:00:29.153Z,48.1
2018-04-15T07:01:19.219Z,48.5
2018-04-15T07:02:09.276Z,48.7
2018-04-15T07:02:59.341Z,49
2018-04-15T07:03:49.146Z,49.3
2018-04-15T07:04:38.925Z,49.8
2018-04-15T07:05:29.540Z,50.3
2018-04-15T07:06:19.047Z,50.8
2018-04-15T07:07:09.654Z,51.4
2018-04-15T07:08:49.244Z,52.5
2018-04-15T07:09:39.834Z,53.1
2018-04-15T07:10:29.901Z,53.6
2018-04-15T07:11:19.691Z,54.1
2018-04-15T07:12:10.072Z,54.7
2018-04-15T07:12:59.824Z,55.3
2018-04-15T07:13:49.599Z,56
2018-04-15T07:14:39.954Z,57
2018-04-15T07:15:30.304Z,58.8
2018-04-15T07:16:20.375Z,58.4
2018-04-15T07:17:10.426Z,56.1
2018-04-15T07:18:00.484Z,54.2
2018-04-15T07:18:50.539Z,51
2018-04-15T07:19:40.333Z,48.6
2018-04-15T07:20:30.381Z,47.3
2018-04-15T07:21:20.746Z,46.6
2018-04-15T07:22:10.819Z,46.3
2018-04-15T07:23:00.383Z,46.4
2018-04-15T07:23:50.956Z,46.9
2018-04-15T07:24:40.733Z,47.4
2018-04-15T07:25:30.796Z,47.9
2018-04-15T07:26:21.133Z,48.4
2018-04-15T07:27:11.191Z,48.6
2018-04-15T07:28:00.694Z,48.9
2018-04-15T07:28:51.329Z,49.1
2018-04-15T07:29:41.101Z,49.4
2018-04-15T07:30:31.521Z,49.9
2018-04-15T07:31:21.240Z,50.4
2018-04-15T07:32:11.590Z,50.9
2018-04-15T07:33:01.081Z,51.6
2018-04-15T07:33:51.439Z,52.2
2018-04-15T07:34:41.782Z,53
2018-04-15T07:35:31.254Z,53.9
2018-04-15T07:36:21.410Z,54.8
2018-04-15T07:37:11.945Z,55.6
2018-04-15T07:38:01.748Z,56.9
2018-04-15T07:38:51.627Z,58.3
2018-04-15T07:39:42.167Z,56.4
2018-04-15T07:40:32.204Z,53.9
2018-04-15T07:41:22.288Z,52.2
2018-04-15T07:42:12.079Z,49.9
2018-04-15T07:43:02.415Z,48.5
2018-04-15T07:43:51.917Z,47.6
2018-04-15T07:44:42.535Z,47.1
2018-04-15T07:45:32.607Z,47
2018-04-15T07:46:22.735Z,47.5
2018-04-15T07:47:12.454Z,48.3
2018-04-15T07:48:02.522Z,49.1
2018-04-15T07:48:52.867Z,50.2
2018-04-15T07:49:42.647Z,51.4
2018-04-15T07:50:33.138Z,52.6
2018-04-15T07:51:23.037Z,53.7
2018-04-15T07:52:13.121Z,54.8
2018-04-15T07:53:02.892Z,56.4
2018-04-15T07:53:53.237Z,58.5
2018-04-15T07:54:43.296Z,57.6
2018-04-15T07:55:33.383Z,55.3
2018-04-15T07:56:23.429Z,53.6
2018-04-15T07:57:13.225Z,51.6
2018-04-15T07:58:03.292Z,49.6
2018-04-15T07:58:53.632Z,48.4
2018-04-15T07:59:43.406Z,47.9
2018-04-15T08:00:33.754Z,47.7
2018-04-15T08:01:23.834Z,47.9
2018-04-15T08:02:13.881Z,48.3
2018-04-15T08:03:03.957Z,48.7
2018-04-15T08:03:54.011Z,48.9
2018-04-15T08:04:44.076Z,49.3
2018-04-15T08:05:33.872Z,49.6
2018-04-15T08:06:24.217Z,49.9
2018-04-15T08:07:13.996Z,50.3
2018-04-15T08:08:04.099Z,50.6
2018-04-15T08:08:54.396Z,50.9
2018-04-15T08:09:44.488Z,51
2018-04-15T08:10:34.541Z,51.3
2018-04-15T08:11:24.590Z,51.8
2018-04-15T08:12:14.102Z,52.3
2018-04-15T08:13:04.724Z,52.7
2018-04-15T08:13:54.789Z,53.1
2018-04-15T08:14:44.574Z,53.8
2018-04-15T08:15:34.921Z,54.5
2018-04-15T08:16:24.704Z,55.3
2018-04-15T08:17:15.276Z,56.6
2018-04-15T08:18:05.103Z,58
2018-04-15T08:18:55.178Z,57
2018-04-15T08:19:45.254Z,55.4
2018-04-15T08:20:35.339Z,54.4
2018-04-15T08:22:15.148Z,50.2
2018-04-15T08:23:04.950Z,48.8
2018-04-15T08:23:55.010Z,48.2
2018-04-15T08:24:45.621Z,48.1
2018-04-15T08:25:35.694Z,48.4
2018-04-15T08:26:25.753Z,49.3
2018-04-15T08:27:15.850Z,50.3
2018-04-15T08:28:05.902Z,51.2
2018-04-15T08:28:55.970Z,52.1
2018-04-15T08:29:45.438Z,53
2018-04-15T08:30:36.085Z,53.9
2018-04-15T08:31:26.138Z,54.8
2018-04-15T08:32:16.208Z,56.6
2018-04-15T08:33:06.272Z,58.9
2018-04-15T08:33:56.060Z,58.3
2018-04-15T08:34:45.937Z,57.3
2018-04-15T08:35:36.201Z,56.6
2018-04-15T08:36:26.112Z,55.1
2018-04-15T08:37:16.586Z,53.2
2018-04-15T08:38:06.650Z,51.5
2018-04-15T08:38:56.429Z,50.3
2018-04-15T08:39:46.784Z,49.8
2018-04-15T08:40:36.577Z,50.3
2018-04-15T08:41:26.927Z,51.4
2018-04-15T08:43:06.797Z,53.2
2018-04-15T08:43:57.109Z,53.8
2018-04-15T08:44:47.176Z,54.1
2018-04-15T08:45:37.232Z,54.3
2018-04-15T08:46:27.302Z,54.6
2018-04-15T08:47:17.398Z,54.9
2018-04-15T08:48:07.169Z,55.4
2018-04-15T08:48:57.496Z,55.8
2018-04-15T08:49:47.297Z,56.1
2018-04-15T08:50:36.793Z,56.3
2018-04-15T08:51:27.412Z,56.6
2018-04-15T08:52:17.488Z,56.5
2018-04-15T08:53:07.251Z,56.1
2018-04-15T08:53:57.891Z,55.4
2018-04-15T08:54:47.951Z,54.6
2018-04-15T08:55:38.014Z,54.1
2018-04-15T08:56:27.808Z,53.3
2018-04-15T08:58:07.944Z,51.8
2018-04-15T08:58:58.283Z,51.3
2018-04-15T08:59:48.367Z,50.8
2018-04-15T09:00:38.247Z,50.4
2018-04-15T09:01:28.460Z,50.1
2018-04-15T09:02:18.530Z,49.8
2018-04-15T09:03:08.420Z,49.4
2018-04-15T09:03:58.398Z,49.2
2018-04-15T09:04:48.739Z,49
2018-04-15T09:05:38.510Z,48.9
2018-04-15T09:06:28.607Z,48.7
2018-04-15T09:07:18.630Z,48.5
2018-04-15T09:08:08.727Z,48.4
2018-04-15T09:08:58.797Z,48.6
2018-04-15T09:09:49.359Z,48.8
2018-04-15T09:10:39.185Z,48.9
2018-04-15T09:11:29.245Z,49.1
2018-04-15T09:12:18.739Z,49.3
2018-04-15T09:13:09.420Z,49.4
2018-04-15T09:13:59.161Z,49.5
2018-04-15T09:14:49.507Z,49.6
2018-04-15T09:15:39.027Z,49.8
2018-04-15T09:16:29.646Z,49.8
2018-04-15T09:17:19.267Z,49.9
2018-04-15T09:18:09.880Z,50.2
2018-04-15T09:18:59.559Z,50.4
2018-04-15T09:19:49.890Z,50.6
2018-04-15T09:20:39.975Z,51
2018-04-15T09:21:29.739Z,51.4
2018-04-15T09:23:10.293Z,52.4
2018-04-15T09:23:59.949Z,53
2018-04-15T09:24:49.733Z,53.7
2018-04-15T09:25:39.816Z,55.2
2018-04-15T09:26:30.783Z,55.5
2018-04-15T09:27:20.189Z,54.1
2018-04-15T09:28:10.551Z,52.9
2018-04-15T09:29:00.342Z,51.3
2018-04-15T09:29:50.656Z,49.1
2018-04-15T09:30:40.438Z,47.8
2018-04-15T09:31:30.802Z,47.1
2018-04-15T09:32:20.860Z,46.5
2018-04-15T09:33:10.633Z,46
2018-04-15T09:34:00.997Z,45.9
2018-04-15T09:34:51.055Z,45.9
2018-04-15T09:35:41.256Z,45.9
2018-04-15T09:36:31.194Z,46.1
2018-04-15T09:37:20.791Z,46.4
2018-04-15T09:38:11.030Z,46.6
2018-04-15T09:39:01.375Z,46.8
2018-04-15T09:39:51.170Z,47
2018-04-15T09:40:41.226Z,47.2
2018-04-15T09:41:31.581Z,47.4
2018-04-15T09:42:21.349Z,47.4
2018-04-15T09:43:11.699Z,47.4
2018-04-15T09:44:01.744Z,47.5
2018-04-15T09:44:51.544Z,47.5
2018-04-15T09:45:41.592Z,47.4
2018-04-15T09:46:31.965Z,47.3
2018-04-15T09:47:22.009Z,47.2
2018-04-15T09:48:12.086Z,47.2
2018-04-15T09:49:02.145Z,47.2
2018-04-15T09:49:52.211Z,46.9
2018-04-15T09:50:42.001Z,46.8
2018-04-15T09:51:32.344Z,46.7
2018-04-15T09:52:22.417Z,46.5
2018-04-15T09:53:12.179Z,46.4
2018-04-15T09:54:02.252Z,46.4
2018-04-15T09:54:52.596Z,46.2
2018-04-15T09:55:42.660Z,46
2018-04-15T09:56:32.799Z,45.9
2018-04-15T09:57:22.523Z,45.8
2018-04-15T09:58:12.559Z,45.7
2018-04-15T09:59:02.643Z,45.6
2018-04-15T09:59:53.033Z,45.4
2018-04-15T10:00:43.047Z,45.3
2018-04-15T10:01:32.840Z,45.1
2018-04-15T10:02:22.904Z,45
2018-04-15T10:03:12.965Z,44.9
2018-04-15T10:04:03.327Z,44.7
2018-04-15T10:04:53.099Z,44.5
2018-04-15T10:05:43.163Z,44.3
2018-04-15T10:06:33.030Z,43.9
2018-04-15T10:07:23.586Z,43.8
2018-04-15T10:08:13.644Z,43.7
2018-04-15T10:09:03.678Z,43.5
2018-04-15T10:09:53.773Z,43.3
2018-04-15T10:10:43.834Z,43.3
2018-04-15T10:11:33.884Z,43.1
2018-04-15T10:12:23.470Z,42.9
2018-04-15T10:13:14.026Z,42.8
2018-04-15T10:14:04.069Z,42.6
2018-04-15T10:14:54.156Z,42.4
2018-04-15T10:15:43.929Z,42.3
2018-04-15T10:16:34.001Z,42.1
2018-04-15T10:17:24.315Z,42.1
2018-04-15T10:18:14.389Z,42.1
2018-04-15T10:19:03.621Z,42.1
2018-04-15T10:19:54.528Z,42
2018-04-15T10:20:44.302Z,41.9
2018-04-15T10:21:34.648Z,41.8
2018-04-15T10:22:24.703Z,41.6
2018-04-15T10:23:14.480Z,41.6
2018-04-15T10:24:04.896Z,41.5
2018-04-15T10:24:54.918Z,41.4
2018-04-15T10:25:44.964Z,41.4
2018-04-15T10:26:34.484Z,41.4
2018-04-15T10:27:25.095Z,41.4
2018-04-15T10:28:14.887Z,41.3
2018-04-15T10:29:05.214Z,41.3
2018-04-15T10:29:55.303Z,41.2
2018-04-15T10:30:45.358Z,41.1
2018-04-15T10:31:35.139Z,41.1
2018-04-15T10:32:25.200Z,41.2
2018-04-15T10:33:15.550Z,41.3
2018-04-15T10:34:05.337Z,41.4
2018-04-15T10:34:55.679Z,41.4
2018-04-15T10:35:45.733Z,41.5
2018-04-15T10:36:35.796Z,41.6
2018-04-15T10:37:25.859Z,41.7
2018-04-15T10:38:15.928Z,41.8
2018-04-15T10:39:06.001Z,42
2018-04-15T10:39:56.066Z,42
2018-04-15T10:40:46.106Z,42.3
2018-04-15T10:41:36.182Z,42.5
2018-04-15T10:42:26.257Z,42.7
2018-04-15T10:43:16.320Z,43
2018-04-15T10:44:06.091Z,43.3
2018-04-15T10:44:56.171Z,43.6
2018-04-15T10:45:46.513Z,43.9
2018-04-15T10:46:36.592Z,44.3
2018-04-15T10:47:26.356Z,44.6
2018-04-15T10:48:16.694Z,44.9
2018-04-15T10:49:06.508Z,45.2
2018-04-15T10:49:56.816Z,45.4
2018-04-15T10:50:46.615Z,45.6
2018-04-15T10:51:36.958Z,46.1
2018-04-15T10:52:26.723Z,46.5
2018-04-15T10:53:17.076Z,47
2018-04-15T10:54:06.881Z,47.6
2018-04-15T10:54:57.198Z,48.5
2018-04-15T10:55:47.269Z,49.4
2018-04-15T10:56:37.344Z,50.2
2018-04-15T10:57:27.408Z,50.9
2018-04-15T10:58:17.466Z,51.3
2018-04-15T10:59:07.513Z,51.7
2018-04-15T10:59:57.503Z,52.1
2018-04-15T11:01:37.751Z,52.9
2018-04-15T11:02:27.309Z,54.1
2018-04-15T11:03:17.361Z,54.9
2018-04-15T11:04:07.931Z,53.6
2018-04-15T11:04:57.954Z,51.6
2018-04-15T11:05:48.031Z,49.1
2018-04-15T11:06:37.821Z,46.8
2018-04-15T11:07:28.159Z,45.6
2018-04-15T11:08:17.954Z,45
2018-04-15T11:09:08.326Z,44.6
2018-04-15T11:09:58.371Z,44.3
2018-04-15T11:10:48.413Z,44.1
2018-04-15T11:11:38.468Z,44.1
2018-04-15T11:12:28.546Z,44.2
2018-04-15T11:13:18.598Z,44.5
2018-04-15T11:14:08.521Z,45
2018-04-15T11:14:58.456Z,45.6
2018-04-15T11:15:48.329Z,46.2
2018-04-15T11:16:38.873Z,46.7
2018-04-15T11:17:28.668Z,47.1
2018-04-15T11:18:18.253Z,47.6